createdAt,value
2022-10-21T00:02:14.456Z,60.11
2022-10-21T00:04:42.087Z,59.99
2022-10-21T00:07:09.395Z,60.08
2022-10-21T00:09:36.698Z,59.70
2022-10-21T00:12:04.273Z,59.98
2022-10-21T00:14:31.624Z,60.18
2022-10-21T00:16:59.236Z,60.00
2022-10-21T00:19:26.821Z,59.66
2022-10-21T00:21:54.147Z,59.87
2022-10-21T00:24:21.547Z,60.00
2022-10-21T00:26:49.970Z,60.30
2022-10-21T00:29:17.300Z,60.64
2022-10-21T00:31:44.635Z,60.61
2022-10-21T00:34:12.235Z,60.25
2022-10-21T00:36:39.593Z,60.26
2022-10-21T00:39:06.880Z,60.65
2022-10-21T00:41:34.515Z,60.64
2022-10-21T00:44:02.699Z,60.74
2022-10-21T00:46:35.939Z,61.14
2022-10-21T00:49:13.007Z,60.98
2022-10-21T00:51:40.319Z,61.19
2022-10-21T00:54:07.913Z,60.90
2022-10-21T00:56:35.319Z,60.53
2022-10-21T00:59:03.677Z,61.24
2022-10-21T01:01:31.394Z,61.14
2022-10-21T01:03:58.809Z,60.86
2022-10-21T01:06:26.359Z,60.50
2022-10-21T01:08:54.776Z,60.39
2022-10-21T01:11:22.612Z,60.17
2022-10-21T01:14:22.198Z,60.56
2022-10-21T01:17:20.884Z,60.40
2022-10-21T01:20:18.619Z,60.99
2022-10-21T01:23:07.288Z,60.27
2022-10-21T01:26:12.182Z,60.32
2022-10-21T01:28:55.629Z,60.76
2022-10-21T01:31:47.903Z,61.01
2022-10-21T01:34:49.911Z,60.71
2022-10-21T01:37:22.843Z,59.24
2022-10-21T01:39:54.090Z,61.07
2022-10-21T01:42:30.368Z,61.32
2022-10-21T01:45:10.281Z,61.40
2022-10-21T01:47:40.005Z,61.50
2022-10-21T01:50:16.812Z,61.62
2022-10-21T01:52:44.966Z,62.00
2022-10-21T01:55:14.270Z,61.58
2022-10-21T01:57:43.452Z,61.37
2022-10-21T02:00:11.109Z,61.78
2022-10-21T02:02:40.495Z,62.03
2022-10-21T02:05:11.028Z,61.17
2022-10-21T02:07:38.332Z,60.97
2022-10-21T02:10:05.985Z,61.01
2022-10-21T02:12:33.859Z,61.07
2022-10-21T02:15:01.183Z,61.62
2022-10-21T02:17:28.497Z,61.30
2022-10-21T02:19:57.440Z,61.14
2022-10-21T02:22:24.744Z,60.85
2022-10-21T02:24:54.742Z,61.58
2022-10-21T02:27:22.480Z,60.55
2022-10-21T02:29:50.909Z,61.74
2022-10-21T02:32:57.237Z,61.70
2022-10-21T02:35:46.342Z,60.88
2022-10-21T02:38:34.106Z,61.26
2022-10-21T02:41:02.868Z,61.08
2022-10-21T02:43:41.611Z,61.18
2022-10-21T02:46:10.778Z,59.46
2022-10-21T02:48:38.700Z,60.63
2022-10-21T02:51:07.038Z,61.26
2022-10-21T02:53:34.704Z,60.85
2022-10-21T02:56:02.048Z,60.62
2022-10-21T02:58:29.368Z,60.80
2022-10-21T03:00:57.046Z,60.36
2022-10-21T03:03:24.520Z,61.41
2022-10-21T03:05:51.860Z,60.64
2022-10-21T03:08:19.440Z,61.48
2022-10-21T03:10:52.966Z,61.82
2022-10-21T03:13:22.165Z,61.31
2022-10-21T03:15:50.072Z,61.75
2022-10-21T03:18:17.472Z,61.75
2022-10-21T03:20:45.218Z,61.79
2022-10-21T03:23:12.590Z,61.50
2022-10-21T03:25:39.886Z,59.80
2022-10-21T03:28:07.461Z,61.50
2022-10-21T03:30:34.801Z,61.78
2022-10-21T03:33:02.113Z,61.33
2022-10-21T03:35:29.686Z,62.42
2022-10-21T03:40:30.342Z,61.53
2022-10-21T03:42:58.297Z,61.33
2022-10-21T03:45:26.132Z,61.56
2022-10-21T03:47:53.769Z,61.46
2022-10-21T03:50:25.970Z,61.00
2022-10-21T03:52:54.389Z,61.11
2022-10-21T03:55:24.171Z,61.98
2022-10-21T03:57:52.105Z,60.89
2022-10-21T04:00:19.838Z,63.13
2022-10-21T04:02:47.424Z,61.85
2022-10-21T04:05:15.092Z,60.82
2022-10-21T04:07:42.441Z,61.06
2022-10-21T04:10:10.440Z,62.91
2022-10-21T04:12:38.214Z,62.42
2022-10-21T04:15:06.172Z,62.19
2022-10-21T04:17:33.759Z,61.90
2022-10-21T04:20:01.076Z,62.60
2022-10-21T04:22:28.420Z,62.68
2022-10-21T04:24:58.593Z,61.64
2022-10-21T04:27:28.213Z,61.15
2022-10-21T04:29:55.805Z,61.75
2022-10-21T04:32:23.096Z,60.57
2022-10-21T04:34:50.407Z,60.44
2022-10-21T04:37:18.008Z,60.43
2022-10-21T04:39:45.406Z,61.11
2022-10-21T04:42:12.711Z,61.32
2022-10-21T04:44:40.306Z,61.25
2022-10-21T04:47:07.640Z,61.82
2022-10-21T04:49:34.978Z,62.61
2022-10-21T04:52:02.545Z,62.60
2022-10-21T04:54:29.897Z,62.07
2022-10-21T04:56:57.209Z,60.98
2022-10-21T04:59:24.828Z,60.63
2022-10-21T05:01:52.383Z,61.46
2022-10-21T05:04:19.822Z,60.88
2022-10-21T05:06:47.393Z,61.92
2022-10-21T05:09:14.866Z,60.88
2022-10-21T05:11:42.219Z,59.96
2022-10-21T05:14:09.835Z,61.62
2022-10-21T05:16:37.170Z,60.61
2022-10-21T05:19:04.499Z,60.25
2022-10-21T05:21:32.127Z,61.00
2022-10-21T05:23:59.490Z,61.61
2022-10-21T05:26:28.871Z,60.71
2022-10-21T05:28:57.596Z,59.52
2022-10-21T05:31:25.332Z,60.26
2022-10-21T05:33:52.690Z,59.87
2022-10-21T05:36:23.247Z,59.31
2022-10-21T05:38:51.821Z,59.39
2022-10-21T05:41:19.540Z,58.00
2022-10-21T05:43:47.109Z,58.81
2022-10-21T05:46:14.505Z,58.59
2022-10-21T05:48:41.878Z,58.92
2022-10-21T05:51:09.559Z,57.57
2022-10-21T05:53:36.912Z,57.50
2022-10-21T05:56:06.982Z,57.62
2022-10-21T05:58:35.331Z,58.42
2022-10-21T06:01:02.720Z,58.23
2022-10-21T06:03:31.626Z,56.56
2022-10-21T06:05:59.768Z,57.00
2022-10-21T06:08:27.706Z,57.98
2022-10-21T06:11:05.729Z,57.19
2022-10-21T06:13:33.145Z,56.70
2022-10-21T06:16:00.786Z,56.83
2022-10-21T06:18:28.143Z,58.33
2022-10-21T06:20:55.514Z,57.19
2022-10-21T06:23:23.145Z,57.68
2022-10-21T06:26:02.490Z,57.06
2022-10-21T06:28:31.029Z,58.44
2022-10-21T06:30:58.519Z,58.12
2022-10-21T06:33:27.280Z,57.67
2022-10-21T06:35:55.542Z,56.97
2022-10-21T06:38:23.447Z,56.86
2022-10-21T06:40:50.788Z,57.04
2022-10-21T06:43:18.568Z,56.49
2022-10-21T06:45:45.980Z,57.04
2022-10-21T06:48:13.839Z,56.29
2022-10-21T06:50:41.474Z,55.80
2022-10-21T06:53:08.840Z,57.63
2022-10-21T06:55:36.185Z,56.28
2022-10-21T06:58:04.056Z,56.39
2022-10-21T07:00:31.409Z,57.36
2022-10-21T07:02:58.862Z,55.93
2022-10-21T07:05:26.474Z,57.35
2022-10-21T07:07:53.884Z,57.86
2022-10-21T07:10:21.213Z,56.39
2022-10-21T07:12:48.865Z,58.09
2022-10-21T07:15:16.213Z,56.57
2022-10-21T07:17:43.549Z,57.48
2022-10-21T07:20:11.152Z,57.27
2022-10-21T07:22:38.478Z,55.76
2022-10-21T07:25:06.298Z,54.12
2022-10-21T07:27:33.930Z,53.67
2022-10-21T07:30:01.326Z,55.46
2022-10-21T07:32:28.675Z,52.72
2022-10-21T07:34:56.295Z,51.99
2022-10-21T07:37:23.609Z,52.84
2022-10-21T07:39:50.924Z,53.13
2022-10-21T07:42:18.494Z,52.34
2022-10-21T07:44:45.857Z,51.23
2022-10-21T07:47:13.216Z,50.46
2022-10-21T07:49:40.810Z,50.00
2022-10-21T07:52:08.208Z,50.34
2022-10-21T07:54:35.656Z,52.01
2022-10-21T07:57:03.287Z,52.67
2022-10-21T07:59:30.605Z,52.17
2022-10-21T08:01:57.964Z,52.14
2022-10-21T08:04:29.739Z,53.38
2022-10-21T08:06:57.312Z,51.68
2022-10-21T08:09:26.277Z,49.98
2022-10-21T08:11:53.874Z,52.10
2022-10-21T08:14:21.199Z,53.29
2022-10-21T08:16:53.024Z,54.66
2022-10-21T08:19:24.025Z,54.62
2022-10-21T08:21:51.318Z,52.90
2022-10-21T08:24:18.672Z,53.99
2022-10-21T08:26:46.270Z,52.63
2022-10-21T08:29:13.581Z,52.83
2022-10-21T08:31:40.993Z,54.40
2022-10-21T08:34:08.850Z,54.42
2022-10-21T08:36:36.629Z,51.00
2022-10-21T08:39:04.070Z,52.64
2022-10-21T08:41:31.538Z,51.41
2022-10-21T08:44:17.543Z,51.83
2022-10-21T08:46:47.694Z,49.07
2022-10-21T08:49:20.540Z,50.58
2022-10-21T08:51:54.255Z,48.22
2022-10-21T08:54:24.650Z,49.94
2022-10-21T08:56:52.267Z,49.89
2022-10-21T08:59:21.699Z,49.38
2022-10-21T09:01:55.394Z,48.21
2022-10-21T09:04:44.188Z,47.56
2022-10-21T09:07:38.508Z,49.65
2022-10-21T09:10:28.188Z,48.56
2022-10-21T09:13:12.966Z,48.38
2022-10-21T09:15:51.583Z,48.64
2022-10-21T09:18:34.957Z,50.40
2022-10-21T09:21:23.516Z,48.16
2022-10-21T09:24:11.456Z,48.22
2022-10-21T09:26:41.677Z,52.06
2022-10-21T09:29:12.287Z,47.86
2022-10-21T09:31:39.927Z,48.93
2022-10-21T09:34:07.332Z,46.89
2022-10-21T09:36:36.469Z,49.76
2022-10-21T09:39:12.178Z,47.91
2022-10-21T09:41:41.549Z,47.42
2022-10-21T09:44:17.608Z,46.29
2022-10-21T09:46:45.826Z,47.70
2022-10-21T09:50:06.533Z,46.36
2022-10-21T09:52:21.158Z,47.81
2022-10-21T09:54:48.809Z,44.31
2022-10-21T09:57:36.297Z,45.48
2022-10-21T10:00:06.028Z,44.59
2022-10-21T10:02:39.837Z,44.29
2022-10-21T10:05:36.923Z,44.78
2022-10-21T10:08:29.246Z,43.54
2022-10-21T10:11:08.606Z,46.20
2022-10-21T10:13:36.830Z,44.57
2022-10-21T10:16:13.973Z,44.00
2022-10-21T10:18:42.043Z,45.57
2022-10-21T10:21:16.579Z,46.45
2022-10-21T10:23:45.657Z,42.88
2022-10-21T10:26:27.832Z,43.97
2022-10-21T10:28:58.365Z,41.56
2022-10-21T10:31:31.526Z,40.73
2022-10-21T10:34:01.130Z,42.31
2022-10-21T10:36:36.886Z,42.97
2022-10-21T10:39:07.641Z,42.41
2022-10-21T10:41:37.961Z,41.10
2022-10-21T10:44:18.671Z,42.70
2022-10-21T10:46:49.261Z,42.41
2022-10-21T10:49:23.989Z,40.57
2022-10-21T10:52:10.569Z,41.55
2022-10-21T10:54:38.221Z,43.77
2022-10-21T10:57:06.425Z,43.34
2022-10-21T11:00:04.452Z,42.95
2022-10-21T11:02:40.960Z,43.86
2022-10-21T11:05:23.603Z,45.82
2022-10-21T11:07:55.516Z,43.94
2022-10-21T11:10:38.002Z,42.07
2022-10-21T11:13:10.497Z,41.27
2022-10-21T11:16:12.372Z,42.21
2022-10-21T11:18:49.436Z,41.24
2022-10-21T11:21:42.582Z,41.99
2022-10-21T11:24:31.773Z,42.98
2022-10-21T11:27:13.471Z,42.64
2022-10-21T11:30:01.103Z,43.54
2022-10-21T11:33:00.871Z,42.23
2022-10-21T11:35:57.397Z,42.20
2022-10-21T11:38:46.541Z,40.16
2022-10-21T11:41:25.671Z,42.70
2022-10-21T11:44:10.879Z,40.42
2022-10-21T11:46:40.308Z,42.17
2022-10-21T11:49:29.261Z,42.26
2022-10-21T11:51:59.702Z,41.07
2022-10-21T11:55:08.368Z,40.92
2022-10-21T11:58:08.492Z,40.83
2022-10-21T12:00:52.280Z,40.54
2022-10-21T12:03:48.961Z,41.09
2022-10-21T12:06:28.172Z,40.52
2022-10-21T12:09:03.087Z,39.75
2022-10-21T12:11:39.010Z,38.67
2022-10-21T12:14:30.892Z,40.62
2022-10-21T12:16:59.862Z,40.28
2022-10-21T12:19:27.433Z,41.96
2022-10-21T12:21:54.780Z,42.32
2022-10-21T12:24:41.921Z,43.17
2022-10-21T12:27:24.573Z,42.47
2022-10-21T12:30:23.431Z,40.62
2022-10-21T12:33:18.225Z,40.33
2022-10-21T12:35:50.439Z,42.00
2022-10-21T12:38:26.076Z,43.10
2022-10-21T12:41:26.867Z,42.10
2022-10-21T12:44:03.369Z,40.54
2022-10-21T12:46:40.030Z,41.04
2022-10-21T12:49:24.206Z,44.44
2022-10-21T12:51:54.564Z,43.22
2022-10-21T12:54:26.702Z,43.47
2022-10-21T12:57:08.179Z,42.12
2022-10-21T12:59:38.005Z,41.62
2022-10-21T13:02:05.150Z,45.16
2022-10-21T13:04:32.351Z,42.44
2022-10-21T13:07:27.830Z,42.97
2022-10-21T13:09:55.020Z,42.57
2022-10-21T13:12:25.582Z,42.00
2022-10-21T13:14:56.657Z,43.96
2022-10-21T13:17:28.491Z,41.34
2022-10-21T13:20:14.567Z,42.68
2022-10-21T13:22:43.287Z,42.86
2022-10-21T13:25:16.323Z,42.60
2022-10-21T13:27:51.678Z,41.36
2022-10-21T13:30:35.997Z,41.94
2022-10-21T13:33:07.328Z,42.60
2022-10-21T13:35:48.132Z,42.40
2022-10-21T13:38:27.210Z,41.96
2022-10-21T13:41:04.629Z,43.19
2022-10-21T13:43:32.067Z,42.13
2022-10-21T13:46:23.443Z,43.58
2022-10-21T13:48:51.058Z,45.84
2022-10-21T13:51:18.199Z,44.14
2022-10-21T13:53:45.978Z,42.77
2022-10-21T13:56:30.082Z,41.63
2022-10-21T13:58:57.443Z,44.96
2022-10-21T14:01:27.254Z,42.80
2022-10-21T14:03:56.394Z,41.13
2022-10-21T14:06:32.368Z,42.52
2022-10-21T14:09:00.403Z,42.50
2022-10-21T14:11:33.377Z,41.57
2022-10-21T14:14:06.606Z,41.99
2022-10-21T14:16:35.851Z,41.87
2022-10-21T14:19:06.760Z,41.70
2022-10-21T14:21:36.688Z,40.79
2022-10-21T14:24:04.247Z,42.12
2022-10-21T14:26:32.448Z,43.39
2022-10-21T14:29:00.817Z,42.44
2022-10-21T14:31:28.184Z,41.22
2022-10-21T14:33:55.521Z,42.34
2022-10-21T14:36:25.069Z,43.49
2022-10-21T14:38:53.971Z,43.26
2022-10-21T14:41:24.585Z,44.00
2022-10-21T14:43:52.992Z,47.36
2022-10-21T14:46:20.385Z,45.66
2022-10-21T14:48:48.822Z,43.57
2022-10-21T14:51:21.169Z,43.80
2022-10-21T14:53:58.498Z,46.38
2022-10-21T14:56:33.800Z,45.52
2022-10-21T14:59:03.598Z,43.88
2022-10-21T15:01:31.187Z,44.93
2022-10-21T15:03:59.526Z,43.99
2022-10-21T15:06:28.796Z,43.20
2022-10-21T15:08:56.430Z,43.85
2022-10-21T15:11:26.544Z,46.34
2022-10-21T15:14:06.306Z,44.96
2022-10-21T15:19:07.608Z,44.80
2022-10-21T15:21:45.454Z,47.40
2022-10-21T15:24:46.245Z,45.55
2022-10-21T15:27:26.134Z,45.73
2022-10-21T15:29:53.888Z,46.66
2022-10-21T15:32:25.643Z,44.44
2022-10-21T15:34:54.289Z,45.67
2022-10-21T15:37:21.904Z,45.38
2022-10-21T15:39:49.260Z,47.87
2022-10-21T15:42:18.156Z,45.37
2022-10-21T15:44:49.522Z,45.50
2022-10-21T15:47:18.592Z,48.29
2022-10-21T15:49:46.730Z,47.07
2022-10-21T15:52:14.089Z,46.76
2022-10-21T15:54:41.718Z,51.24
2022-10-21T15:57:19.856Z,47.54
2022-10-21T15:59:47.548Z,48.40
2022-10-21T16:02:17.084Z,44.98
2022-10-21T16:04:45.277Z,45.82
2022-10-21T16:07:34.170Z,47.83
2022-10-21T16:10:03.638Z,47.65
2022-10-21T16:12:31.223Z,46.29
2022-10-21T16:14:58.550Z,45.73
2022-10-21T16:17:28.926Z,46.10
2022-10-21T16:19:56.250Z,47.82
2022-10-21T16:22:23.584Z,46.50
2022-10-21T16:24:51.217Z,47.27
2022-10-21T16:27:31.336Z,48.30
2022-10-21T16:30:34.723Z,47.43
2022-10-21T16:33:02.033Z,48.34
2022-10-21T16:35:29.634Z,50.80
2022-10-21T16:37:56.984Z,47.75
2022-10-21T16:40:25.875Z,51.43
2022-10-21T16:42:53.631Z,51.71
2022-10-21T16:45:21.856Z,49.02
2022-10-21T16:47:52.557Z,48.15
2022-10-21T16:50:22.909Z,49.52
2022-10-21T16:52:50.355Z,50.08
2022-10-21T16:55:17.812Z,48.61
2022-10-21T16:57:45.467Z,49.66
2022-10-21T17:00:13.583Z,48.03
2022-10-21T17:02:40.919Z,49.44
2022-10-21T17:05:08.879Z,50.53
2022-10-21T17:07:36.476Z,50.66
2022-10-21T17:10:04.311Z,50.92
2022-10-21T17:12:33.364Z,51.79
2022-10-21T17:15:00.762Z,51.19
2022-10-21T17:17:28.182Z,49.99
2022-10-21T17:19:55.796Z,52.18
2022-10-21T17:22:23.161Z,50.57
2022-10-21T17:24:50.514Z,48.91
2022-10-21T17:27:19.651Z,48.02
2022-10-21T17:29:47.225Z,49.56
2022-10-21T17:32:14.583Z,49.06
2022-10-21T17:34:42.192Z,48.23
2022-10-21T17:37:10.181Z,49.80
2022-10-21T17:39:37.538Z,48.61
2022-10-21T17:42:05.145Z,50.37
2022-10-21T17:44:32.576Z,51.33
2022-10-21T17:46:59.906Z,51.08
2022-10-21T17:49:27.573Z,49.87
2022-10-21T17:51:54.903Z,50.72
2022-10-21T17:54:25.997Z,51.25
2022-10-21T17:56:57.011Z,49.38
2022-10-21T17:59:24.635Z,50.53
2022-10-21T18:01:51.974Z,51.18
2022-10-21T18:04:20.569Z,51.38
2022-10-21T18:06:47.966Z,51.62
2022-10-21T18:09:15.425Z,50.38
2022-10-21T18:11:43.106Z,51.23
2022-10-21T18:14:10.406Z,49.72
2022-10-21T18:16:37.861Z,49.82
2022-10-21T18:19:05.459Z,49.74
2022-10-21T18:21:32.746Z,50.45
2022-10-21T18:24:00.093Z,50.36
2022-10-21T18:26:29.397Z,50.36
2022-10-21T18:28:58.311Z,51.12
2022-10-21T18:31:28.138Z,52.13
2022-10-21T18:33:55.929Z,50.98
2022-10-21T18:36:23.377Z,50.68
2022-10-21T18:38:50.672Z,51.26
2022-10-21T18:41:20.904Z,51.17
2022-10-21T18:43:52.575Z,52.14
2022-10-21T18:46:20.281Z,51.12
2022-10-21T18:48:47.828Z,51.35
2022-10-21T18:51:19.106Z,51.28
2022-10-21T18:53:49.810Z,50.79
2022-10-21T18:56:20.126Z,50.77
2022-10-21T18:58:47.737Z,51.36
2022-10-21T19:01:15.285Z,50.42
2022-10-21T19:03:42.909Z,51.70
2022-10-21T19:06:33.896Z,53.29
2022-10-21T19:09:01.466Z,52.77
2022-10-21T19:11:29.185Z,53.69
2022-10-21T19:13:56.549Z,53.46
2022-10-21T19:16:23.940Z,52.45
2022-10-21T19:18:51.555Z,54.22
2022-10-21T19:21:19.660Z,51.50
2022-10-21T19:23:46.979Z,51.78
2022-10-21T19:26:14.922Z,52.67
2022-10-21T19:28:42.344Z,52.39
2022-10-21T19:31:11.516Z,53.12
2022-10-21T19:33:39.201Z,53.16
2022-10-21T19:36:06.934Z,52.15
2022-10-21T19:38:49.759Z,53.26
2022-10-21T19:41:21.192Z,52.52
2022-10-21T19:43:48.824Z,52.62
2022-10-21T19:46:21.042Z,52.11
2022-10-21T19:48:51.321Z,52.59
2022-10-21T19:51:19.685Z,52.10
2022-10-21T19:53:47.264Z,53.21
2022-10-21T19:56:14.938Z,52.19
2022-10-21T19:58:47.006Z,51.55
2022-10-21T20:01:24.891Z,51.71
2022-10-21T20:03:52.717Z,53.27
2022-10-21T20:06:27.530Z,52.52
2022-10-21T20:08:56.557Z,53.15
2022-10-21T20:11:24.239Z,52.68
2022-10-21T20:13:51.643Z,52.38
2022-10-21T20:16:22.167Z,51.72
2022-10-21T20:18:49.634Z,52.68
2022-10-21T20:21:16.939Z,53.02
2022-10-21T20:23:44.506Z,53.74
2022-10-21T20:26:11.866Z,52.67
2022-10-21T20:28:39.253Z,52.47
2022-10-21T20:31:07.737Z,52.25
2022-10-21T20:33:36.383Z,52.76
2022-10-21T20:36:09.001Z,52.25
2022-10-21T20:38:36.615Z,53.25
2022-10-21T20:41:06.879Z,51.65
2022-10-21T20:43:35.214Z,50.61
2022-10-21T20:46:03.596Z,51.82
2022-10-21T20:48:31.531Z,51.35
2022-10-21T20:51:15.654Z,51.52
2022-10-21T20:53:50.769Z,51.08
2022-10-21T20:56:18.208Z,51.59
2022-10-21T20:58:45.780Z,51.64
2022-10-21T21:01:17.937Z,51.56
2022-10-21T21:03:46.248Z,51.44
2022-10-21T21:06:13.609Z,51.50
2022-10-21T21:08:48.820Z,51.39
2022-10-21T21:11:21.260Z,51.60
2022-10-21T21:13:48.665Z,50.92
2022-10-21T21:16:20.896Z,51.61
2022-10-21T21:18:57.901Z,51.21
2022-10-21T21:21:26.805Z,50.94
2022-10-21T21:23:54.402Z,50.78
2022-10-21T21:26:26.084Z,52.32
2022-10-21T21:28:53.747Z,53.02
2022-10-21T21:31:22.354Z,52.41
2022-10-21T21:33:49.853Z,52.68
2022-10-21T21:36:18.167Z,52.90
2022-10-21T21:38:45.651Z,52.40
2022-10-21T21:41:13.397Z,51.56
2022-10-21T21:43:41.590Z,51.61
2022-10-21T21:46:08.955Z,51.69
2022-10-21T21:48:36.265Z,51.79
2022-10-21T21:51:05.974Z,51.83
2022-10-21T21:53:33.330Z,51.77
2022-10-21T21:56:03.348Z,51.82
2022-10-21T21:58:31.169Z,51.81
2022-10-21T22:00:58.501Z,52.09
2022-10-21T22:03:26.185Z,52.24
2022-10-21T22:05:53.556Z,52.40
2022-10-21T22:08:20.916Z,51.91
2022-10-21T22:10:48.495Z,52.50
2022-10-21T22:13:15.808Z,52.55
2022-10-21T22:15:48.075Z,52.14
2022-10-21T22:18:16.264Z,52.92
2022-10-21T22:20:43.594Z,52.71
2022-10-21T22:23:10.929Z,53.01
2022-10-21T22:25:38.513Z,52.96
2022-10-21T22:28:05.878Z,52.85
2022-10-21T22:30:33.216Z,53.10
2022-10-21T22:33:00.830Z,52.81
2022-10-21T22:35:28.288Z,53.12
2022-10-21T22:37:55.629Z,53.16
2022-10-21T22:40:23.255Z,53.17
2022-10-21T22:42:50.590Z,52.99
2022-10-21T22:45:17.941Z,53.27
2022-10-21T22:47:45.518Z,53.13
2022-10-21T22:50:12.850Z,52.99
2022-10-21T22:52:41.364Z,53.57
2022-10-21T22:55:10.159Z,53.58
2022-10-21T22:57:37.545Z,53.61
2022-10-21T23:00:05.298Z,54.12
2022-10-21T23:02:32.905Z,53.96
2022-10-21T23:05:00.230Z,53.78
2022-10-21T23:07:27.705Z,53.55
2022-10-21T23:09:55.333Z,53.41
2022-10-21T23:12:22.707Z,53.87
2022-10-21T23:14:50.017Z,54.26
2022-10-21T23:17:17.598Z,54.15
2022-10-21T23:19:44.946Z,54.53
2022-10-21T23:22:12.306Z,54.54
2022-10-21T23:24:39.928Z,54.82
2022-10-21T23:27:07.243Z,54.54
2022-10-21T23:29:34.554Z,55.10
2022-10-21T23:32:02.116Z,54.26
2022-10-21T23:34:30.474Z,54.38
2022-10-21T23:36:57.785Z,54.18
2022-10-21T23:39:25.420Z,54.88
2022-10-21T23:41:52.730Z,55.07
2022-10-21T23:44:20.142Z,54.68
2022-10-21T23:46:47.740Z,55.17
2022-10-21T23:49:15.109Z,54.48
2022-10-21T23:51:42.462Z,54.34
2022-10-21T23:54:10.206Z,54.25
2022-10-21T23:56:37.546Z,54.34
2022-10-21T23:59:06.909Z,54.51
